createdAt,value
2022-12-04T00:02:17.976Z,65.22
2022-12-04T00:05:06.930Z,65.02
2022-12-04T00:07:54.423Z,64.86
2022-12-04T00:10:44.758Z,64.74
2022-12-04T00:13:31.985Z,64.83
2022-12-04T00:16:21.180Z,65.81
2022-12-04T00:19:08.321Z,65.93
2022-12-04T00:21:56.010Z,65.58
2022-12-04T00:24:42.756Z,65.86
2022-12-04T00:27:31.453Z,65.60
2022-12-04T00:30:18.527Z,65.56
2022-12-04T00:33:05.786Z,65.24
2022-12-04T00:35:58.768Z,65.11
2022-12-04T00:38:46.310Z,64.97
2022-12-04T00:41:34.333Z,64.82
2022-12-04T00:44:22.567Z,65.00
2022-12-04T00:47:09.465Z,65.01
2022-12-04T00:49:56.989Z,64.99
2022-12-04T00:52:44.212Z,64.90
2022-12-04T00:55:31.582Z,65.05
2022-12-04T00:58:18.376Z,64.92
2022-12-04T01:01:09.604Z,64.92
2022-12-04T01:03:57.392Z,65.40
2022-12-04T01:06:44.426Z,65.17
2022-12-04T01:09:31.331Z,65.08
2022-12-04T01:12:20.941Z,64.97
2022-12-04T01:15:08.973Z,64.84
2022-12-04T01:17:57.719Z,65.40
2022-12-04T01:20:48.917Z,65.59
2022-12-04T01:23:35.946Z,65.60
2022-12-04T01:26:22.851Z,65.51
2022-12-04T01:29:10.240Z,65.48
2022-12-04T01:31:57.128Z,65.34
2022-12-04T01:34:45.905Z,65.47
2022-12-04T01:37:32.698Z,65.87
2022-12-04T01:40:19.811Z,65.99
2022-12-04T01:43:10.499Z,65.68
2022-12-04T01:45:58.798Z,65.52
2022-12-04T01:48:50.488Z,65.51
2022-12-04T01:51:42.206Z,66.02
2022-12-04T01:54:32.259Z,65.54
2022-12-04T01:57:21.851Z,65.42
2022-12-04T02:00:11.706Z,65.61
2022-12-04T02:02:59.816Z,65.48
2022-12-04T02:05:46.743Z,65.82
2022-12-04T02:08:36.983Z,66.04
2022-12-04T02:11:31.861Z,65.67
2022-12-04T02:14:27.178Z,65.61
2022-12-04T02:17:23.368Z,65.99
2022-12-04T02:20:29.850Z,66.26
2022-12-04T02:23:29.592Z,68.34
2022-12-04T02:26:33.796Z,66.35
2022-12-04T02:29:33.984Z,66.37
2022-12-04T02:32:26.631Z,66.84
2022-12-04T02:35:17.650Z,66.44
2022-12-04T02:38:15.087Z,66.52
2022-12-04T02:41:09.353Z,66.31
2022-12-04T02:43:59.588Z,66.44
2022-12-04T02:46:52.053Z,66.38
2022-12-04T02:49:44.014Z,66.28
2022-12-04T02:52:35.482Z,66.29
2022-12-04T02:55:27.844Z,66.55
2022-12-04T02:58:18.526Z,66.39
2022-12-04T03:01:19.595Z,66.21
2022-12-04T03:04:13.110Z,66.28
2022-12-04T03:07:05.752Z,66.82
2022-12-04T03:09:57.313Z,66.53
2022-12-04T03:12:48.802Z,66.33
2022-12-04T03:15:41.811Z,66.11
2022-12-04T03:18:33.630Z,66.43
2022-12-04T03:21:25.444Z,66.09
2022-12-04T03:24:16.445Z,66.22
2022-12-04T03:27:12.137Z,66.24
2022-12-04T03:30:04.934Z,65.93
2022-12-04T03:32:56.743Z,65.92
2022-12-04T03:35:48.729Z,65.94
2022-12-04T03:38:43.016Z,67.18
2022-12-04T03:41:35.157Z,66.15
2022-12-04T03:44:25.661Z,65.91
2022-12-04T03:47:18.796Z,65.87
2022-12-04T03:50:12.880Z,65.73
2022-12-04T03:53:05.535Z,65.62
2022-12-04T03:55:59.980Z,65.57
2022-12-04T03:58:50.741Z,65.47
2022-12-04T04:01:44.047Z,65.79
2022-12-04T04:04:35.632Z,65.74
2022-12-04T04:07:34.813Z,66.21
2022-12-04T04:10:26.252Z,66.27
2022-12-04T04:13:37.275Z,66.12
2022-12-04T04:16:48.435Z,66.01
2022-12-04T04:19:55.564Z,66.15
2022-12-04T04:23:02.755Z,66.15
2022-12-04T04:25:49.765Z,65.96
2022-12-04T04:28:40.299Z,66.41
2022-12-04T04:31:35.517Z,66.55
2022-12-04T04:34:29.828Z,66.19
2022-12-04T04:37:26.453Z,66.10
2022-12-04T04:40:20.432Z,66.07
2022-12-04T04:43:13.803Z,66.00
2022-12-04T04:46:08.113Z,65.92
2022-12-04T04:49:00.388Z,65.96
2022-12-04T04:51:48.041Z,66.02
2022-12-04T04:54:35.751Z,65.99
2022-12-04T04:57:30.432Z,66.07
2022-12-04T05:00:21.009Z,66.11
2022-12-04T05:03:10.953Z,66.01
2022-12-04T05:05:57.998Z,66.29
2022-12-04T05:08:45.165Z,66.26
2022-12-04T05:11:32.340Z,66.19
2022-12-04T05:14:19.520Z,66.10
2022-12-04T05:17:12.406Z,66.17
2022-12-04T05:20:01.544Z,66.02
2022-12-04T05:22:48.391Z,65.96
2022-12-04T05:25:35.996Z,65.90
2022-12-04T05:28:23.029Z,66.07
2022-12-04T05:31:10.377Z,65.94
2022-12-04T05:33:57.726Z,66.61
2022-12-04T05:36:46.281Z,66.37
2022-12-04T05:39:33.102Z,66.94
2022-12-04T05:42:20.640Z,66.56
2022-12-04T05:45:08.141Z,66.32
2022-12-04T05:47:55.188Z,66.35
2022-12-04T05:50:41.965Z,66.26
2022-12-04T05:53:30.129Z,66.08
2022-12-04T05:56:17.251Z,66.10
2022-12-04T05:59:04.461Z,65.94
2022-12-04T06:01:51.508Z,65.84
2022-12-04T06:04:39.430Z,65.91
2022-12-04T06:07:26.718Z,66.04
2022-12-04T06:10:15.249Z,66.10
2022-12-04T06:13:02.207Z,65.91
2022-12-04T06:15:49.368Z,65.94
2022-12-04T06:18:36.269Z,66.01
2022-12-04T06:21:25.431Z,66.04
2022-12-04T06:24:15.302Z,66.17
2022-12-04T06:27:26.660Z,66.31
2022-12-04T06:30:11.832Z,66.95
2022-12-04T06:32:59.495Z,66.84
2022-12-04T06:35:46.382Z,67.50
2022-12-04T06:38:34.535Z,67.45
2022-12-04T06:41:22.651Z,67.44
2022-12-04T06:44:11.362Z,67.86
2022-12-04T06:47:00.995Z,67.43
2022-12-04T06:49:50.932Z,67.86
2022-12-04T06:52:37.890Z,68.03
2022-12-04T06:55:24.918Z,67.95
2022-12-04T06:58:11.825Z,67.73
2022-12-04T07:01:00.402Z,68.60
2022-12-04T07:03:51.649Z,67.87
2022-12-04T07:06:40.750Z,67.52
2022-12-04T07:09:27.676Z,67.29
2022-12-04T07:12:15.394Z,66.94
2022-12-04T07:15:02.562Z,66.94
2022-12-04T07:17:51.770Z,66.59
2022-12-04T07:20:40.910Z,66.50
2022-12-04T07:23:28.158Z,66.29
2022-12-04T07:26:14.975Z,66.43
2022-12-04T07:29:02.120Z,66.52
2022-12-04T07:31:49.217Z,66.42
2022-12-04T07:34:38.472Z,66.27
2022-12-04T07:37:25.336Z,66.16
2022-12-04T07:40:13.707Z,66.04
2022-12-04T07:43:00.578Z,66.30
2022-12-04T07:45:47.824Z,67.48
2022-12-04T07:48:34.528Z,67.89
2022-12-04T07:51:24.374Z,68.32
2022-12-04T07:54:11.286Z,67.84
2022-12-04T07:56:58.303Z,67.79
2022-12-04T07:59:45.207Z,67.52
2022-12-04T08:02:32.436Z,67.29
2022-12-04T08:05:19.851Z,67.02
2022-12-04T08:08:08.373Z,67.25
2022-12-04T08:10:55.733Z,67.00
2022-12-04T08:13:42.539Z,66.99
2022-12-04T08:16:31.188Z,66.75
2022-12-04T08:19:18.226Z,67.05
2022-12-04T08:22:05.445Z,66.70
2022-12-04T08:24:54.015Z,66.49
2022-12-04T08:27:47.729Z,66.43
2022-12-04T08:30:35.139Z,66.57
2022-12-04T08:33:25.362Z,66.66
2022-12-04T08:36:19.577Z,66.62
2022-12-04T08:39:07.975Z,66.36
2022-12-04T08:41:57.435Z,66.30
2022-12-04T08:44:44.451Z,66.07
2022-12-04T08:47:31.387Z,66.20
2022-12-04T08:50:18.585Z,66.17
2022-12-04T08:53:06.170Z,66.16
2022-12-04T08:55:54.176Z,66.17
2022-12-04T08:58:42.264Z,66.28
2022-12-04T09:01:30.592Z,66.50
2022-12-04T09:04:17.557Z,66.71
2022-12-04T09:07:04.847Z,66.87
2022-12-04T09:09:51.834Z,66.68
2022-12-04T09:12:39.475Z,68.08
2022-12-04T09:15:27.906Z,67.41
2022-12-04T09:18:15.805Z,67.70
2022-12-04T09:21:06.193Z,68.29
2022-12-04T09:23:53.267Z,68.41
2022-12-04T09:26:41.300Z,68.42
2022-12-04T09:29:28.686Z,68.43
2022-12-04T09:32:16.686Z,69.18
2022-12-04T09:35:03.900Z,68.57
2022-12-04T09:37:50.908Z,68.38
2022-12-04T09:40:47.142Z,68.38
2022-12-04T09:43:37.519Z,68.23
2022-12-04T09:46:29.928Z,67.67
2022-12-04T09:49:24.641Z,67.47
2022-12-04T09:52:25.060Z,67.58
2022-12-04T09:55:16.658Z,69.95
2022-12-04T09:58:07.543Z,68.89
2022-12-04T10:00:56.429Z,68.54
2022-12-04T10:03:44.108Z,68.23
2022-12-04T10:06:42.399Z,68.61
2022-12-04T10:09:37.913Z,68.53
2022-12-04T10:12:33.131Z,68.19
2022-12-04T10:15:30.646Z,67.79
2022-12-04T10:18:28.512Z,67.90
2022-12-04T10:21:35.161Z,67.91
2022-12-04T10:24:37.270Z,67.75
2022-12-04T10:27:29.975Z,68.05
2022-12-04T10:30:21.109Z,68.09
2022-12-04T10:33:17.804Z,68.36
2022-12-04T10:36:05.435Z,68.68
2022-12-04T10:38:57.632Z,68.41
2022-12-04T10:41:52.410Z,68.43
2022-12-04T10:44:40.006Z,68.46
2022-12-04T10:47:26.755Z,68.53
2022-12-04T10:50:18.342Z,68.86
2022-12-04T10:53:08.252Z,68.29
2022-12-04T10:56:11.555Z,67.96
2022-12-04T10:59:00.058Z,68.93
2022-12-04T11:01:48.202Z,68.07
2022-12-04T11:04:36.134Z,67.89
2022-12-04T11:07:25.826Z,68.29
2022-12-04T11:10:22.614Z,68.36
2022-12-04T11:13:18.980Z,68.34
2022-12-04T11:16:07.478Z,68.40
2022-12-04T11:18:54.805Z,68.52
2022-12-04T11:21:41.907Z,68.13
2022-12-04T11:24:33.308Z,68.15
2022-12-04T11:27:25.341Z,67.57
2022-12-04T11:30:19.836Z,67.19
2022-12-04T11:33:19.025Z,67.05
2022-12-04T11:36:19.736Z,66.70
2022-12-04T11:39:16.581Z,66.88
2022-12-04T11:42:06.198Z,66.78
2022-12-04T11:44:56.063Z,66.61
2022-12-04T11:47:54.873Z,67.13
2022-12-04T11:50:51.463Z,66.92
2022-12-04T11:53:47.927Z,66.54
2022-12-04T11:56:37.285Z,66.34
2022-12-04T11:59:43.848Z,65.92
2022-12-04T12:02:51.865Z,65.69
2022-12-04T12:06:03.633Z,65.96
2022-12-04T12:09:09.722Z,65.65
2022-12-04T12:12:03.853Z,65.44
2022-12-04T12:15:02.942Z,65.40
2022-12-04T12:18:08.533Z,65.37
2022-12-04T12:21:02.256Z,65.38
2022-12-04T12:24:04.290Z,65.37
2022-12-04T12:27:07.066Z,65.71
2022-12-04T12:30:04.005Z,65.59
2022-12-04T12:33:11.740Z,65.50
2022-12-04T12:36:05.691Z,65.70
2022-12-04T12:38:57.444Z,65.73
2022-12-04T12:41:49.758Z,65.56
2022-12-04T12:44:44.956Z,65.68
2022-12-04T12:47:39.953Z,65.85
2022-12-04T12:50:36.318Z,65.86
2022-12-04T12:53:27.874Z,66.40
2022-12-04T12:56:15.464Z,66.60
2022-12-04T12:59:06.999Z,66.62
2022-12-04T13:05:07.600Z,67.07
2022-12-04T13:08:02.404Z,67.15
2022-12-04T13:10:57.506Z,67.46
2022-12-04T13:13:47.433Z,67.33
2022-12-04T13:16:42.940Z,67.50
2022-12-04T13:19:33.585Z,68.13
2022-12-04T13:22:31.781Z,67.95
2022-12-04T13:25:41.688Z,68.11
2022-12-04T13:28:44.378Z,68.45
2022-12-04T13:31:39.135Z,68.88
2022-12-04T13:34:45.283Z,68.89
2022-12-04T13:37:50.503Z,69.22
2022-12-04T13:40:42.117Z,69.28
2022-12-04T13:43:45.790Z,69.48
2022-12-04T13:46:35.176Z,69.53
2022-12-04T13:49:27.085Z,69.36
2022-12-04T13:52:24.322Z,69.82
2022-12-04T13:55:26.275Z,69.90
2022-12-04T13:58:28.875Z,69.76
2022-12-04T14:01:27.243Z,69.22
2022-12-04T14:04:25.406Z,69.34
2022-12-04T14:07:25.479Z,69.14
2022-12-04T14:10:29.086Z,68.96
2022-12-04T14:13:22.789Z,68.75
2022-12-04T14:16:20.800Z,68.90
2022-12-04T14:19:09.208Z,68.31
2022-12-04T14:21:56.536Z,68.04
2022-12-04T14:24:43.135Z,67.91
2022-12-04T14:27:34.859Z,68.22
2022-12-04T14:30:25.320Z,67.65
2022-12-04T14:33:20.053Z,67.86
2022-12-04T14:36:12.486Z,67.85
2022-12-04T14:39:09.099Z,67.72
2022-12-04T14:42:06.941Z,67.39
2022-12-04T14:44:56.830Z,67.63
2022-12-04T14:47:56.112Z,67.32
2022-12-04T14:50:52.964Z,67.35
2022-12-04T14:53:47.282Z,67.68
2022-12-04T14:56:47.901Z,67.71
2022-12-04T14:59:43.915Z,68.09
2022-12-04T15:02:36.594Z,67.77
2022-12-04T15:05:27.007Z,67.45
2022-12-04T15:08:16.105Z,67.73
2022-12-04T15:11:26.277Z,67.47
2022-12-04T15:14:14.765Z,67.73
2022-12-04T15:17:03.877Z,68.74
2022-12-04T15:19:50.974Z,69.45
2022-12-04T15:22:37.939Z,69.72
2022-12-04T15:25:29.196Z,69.12
2022-12-04T15:28:22.082Z,69.43
2022-12-04T15:31:16.331Z,68.98
2022-12-04T15:34:07.294Z,68.56
2022-12-04T15:37:03.023Z,68.71
2022-12-04T15:39:52.665Z,69.18
2022-12-04T15:42:41.648Z,69.11
2022-12-04T15:45:35.300Z,69.27
2022-12-04T15:48:27.643Z,69.15
2022-12-04T15:51:16.770Z,69.37
2022-12-04T15:54:04.621Z,69.38
2022-12-04T15:57:03.530Z,69.00
2022-12-04T15:59:53.674Z,69.62
2022-12-04T16:02:43.128Z,69.20
2022-12-04T16:05:36.481Z,69.20
2022-12-04T16:08:25.436Z,69.28
2022-12-04T16:11:29.402Z,69.19
2022-12-04T16:14:17.906Z,69.52
2022-12-04T16:17:06.751Z,69.74
2022-12-04T16:19:53.356Z,69.37
2022-12-04T16:22:41.795Z,69.79
2022-12-04T16:25:31.548Z,70.20
2022-12-04T16:28:19.280Z,69.58
2022-12-04T16:31:06.749Z,70.02
2022-12-04T16:33:54.958Z,70.37
2022-12-04T16:36:42.507Z,70.05
2022-12-04T16:39:30.053Z,69.95
2022-12-04T16:42:18.699Z,70.01
2022-12-04T16:45:21.587Z,69.92
2022-12-04T16:48:08.657Z,69.54
2022-12-04T16:50:56.926Z,69.06
2022-12-04T16:53:44.150Z,69.27
2022-12-04T16:56:31.473Z,69.47
2022-12-04T16:59:18.288Z,70.25
2022-12-04T17:02:14.093Z,70.29
2022-12-04T17:05:01.016Z,69.98
2022-12-04T17:07:50.612Z,69.66
2022-12-04T17:10:37.487Z,69.21
2022-12-04T17:13:24.415Z,69.04
2022-12-04T17:16:14.834Z,68.76
2022-12-04T17:19:02.460Z,68.62
2022-12-04T17:21:49.186Z,68.42
2022-12-04T17:24:43.562Z,68.70
2022-12-04T17:27:34.454Z,69.11
2022-12-04T17:30:21.582Z,69.19
2022-12-04T17:33:09.377Z,69.61
2022-12-04T17:35:56.208Z,69.56
2022-12-04T17:38:43.133Z,69.55
2022-12-04T17:41:31.549Z,69.77
2022-12-04T17:44:18.478Z,69.41
2022-12-04T17:47:06.331Z,69.66
2022-12-04T17:49:52.945Z,69.92
2022-12-04T17:52:40.445Z,69.80
2022-12-04T17:55:27.285Z,69.67
2022-12-04T17:58:15.875Z,69.59
2022-12-04T18:01:04.403Z,69.87
2022-12-04T18:03:53.237Z,69.99
2022-12-04T18:06:42.503Z,69.90
2022-12-04T18:09:30.110Z,70.46
2022-12-04T18:12:17.445Z,70.81
2022-12-04T18:15:07.540Z,70.92
2022-12-04T18:17:54.338Z,70.85
2022-12-04T18:20:42.055Z,71.17
2022-12-04T18:23:30.387Z,70.79
2022-12-04T18:26:20.042Z,70.58
2022-12-04T18:29:07.899Z,70.92
2022-12-04T18:31:56.352Z,70.47
2022-12-04T18:34:43.637Z,70.38
2022-12-04T18:37:31.090Z,70.75
2022-12-04T18:40:18.170Z,70.36
2022-12-04T18:43:05.681Z,69.90
2022-12-04T18:46:04.066Z,70.15
2022-12-04T18:48:58.457Z,70.01
2022-12-04T18:51:50.126Z,69.57
2022-12-04T18:54:37.783Z,69.93
2022-12-04T18:57:24.478Z,69.85
2022-12-04T19:00:12.177Z,70.02
2022-12-04T19:02:58.749Z,69.77
2022-12-04T19:05:50.951Z,70.27
2022-12-04T19:08:42.853Z,70.35
2022-12-04T19:11:30.752Z,70.42
2022-12-04T19:14:23.688Z,70.07
2022-12-04T19:17:11.442Z,69.76
2022-12-04T19:19:58.592Z,69.53
2022-12-04T19:22:47.117Z,69.92
2022-12-04T19:25:34.021Z,69.60
2022-12-04T19:28:21.322Z,69.67
2022-12-04T19:31:15.946Z,70.26
2022-12-04T19:34:03.512Z,69.90
2022-12-04T19:36:50.198Z,69.78
2022-12-04T19:39:38.919Z,69.67
2022-12-04T19:42:25.661Z,69.67
2022-12-04T19:45:13.071Z,69.08
2022-12-04T19:48:00.179Z,69.21
2022-12-04T19:50:46.833Z,69.34
2022-12-04T19:53:40.501Z,69.03
2022-12-04T19:56:32.568Z,69.32
2022-12-04T19:59:21.015Z,69.35
2022-12-04T20:02:09.773Z,69.13
2022-12-04T20:04:56.981Z,69.01
2022-12-04T20:07:43.720Z,69.12
2022-12-04T20:10:33.038Z,68.78
2022-12-04T20:13:21.223Z,68.74
2022-12-04T20:16:10.963Z,68.81
2022-12-04T20:18:57.645Z,69.08
2022-12-04T20:21:45.320Z,68.75
2022-12-04T20:24:32.011Z,69.05
2022-12-04T20:27:19.378Z,69.13
2022-12-04T20:30:09.089Z,69.02
2022-12-04T20:32:56.486Z,68.79
2022-12-04T20:35:43.393Z,68.82
2022-12-04T20:38:30.805Z,69.38
2022-12-04T20:41:18.801Z,69.34
2022-12-04T20:44:08.016Z,69.29
2022-12-04T20:46:56.280Z,69.25
2022-12-04T20:49:43.657Z,69.10
2022-12-04T20:52:30.389Z,69.07
2022-12-04T20:55:17.673Z,68.79
2022-12-04T20:58:04.462Z,69.18
2022-12-04T21:00:51.887Z,69.20
2022-12-04T21:03:40.466Z,69.19
2022-12-04T21:06:34.531Z,68.94
2022-12-04T21:09:24.698Z,68.97
2022-12-04T21:12:26.326Z,68.94
2022-12-04T21:15:30.772Z,68.69
2022-12-04T21:18:17.647Z,69.63
2022-12-04T21:21:05.967Z,69.25
2022-12-04T21:23:53.222Z,69.43
2022-12-04T21:26:40.566Z,69.52
2022-12-04T21:29:27.727Z,69.82
2022-12-04T21:32:14.553Z,69.93
2022-12-04T21:35:02.521Z,69.43
2022-12-04T21:37:50.731Z,69.41
2022-12-04T21:40:42.311Z,69.88
2022-12-04T21:43:29.851Z,70.23
2022-12-04T21:46:17.104Z,70.08
2022-12-04T21:49:05.337Z,69.99
2022-12-04T21:51:57.669Z,70.20
2022-12-04T21:54:49.148Z,69.75
2022-12-04T21:57:36.426Z,69.89
2022-12-04T22:00:23.576Z,70.11
2022-12-04T22:03:13.354Z,70.17
2022-12-04T22:06:01.399Z,70.30
2022-12-04T22:08:49.055Z,70.27
2022-12-04T22:11:37.657Z,70.38
2022-12-04T22:14:24.615Z,70.25
2022-12-04T22:17:11.627Z,69.87
2022-12-04T22:19:58.989Z,70.20
2022-12-04T22:22:46.165Z,70.49
2022-12-04T22:25:33.393Z,70.02
2022-12-04T22:28:21.756Z,70.73
2022-12-04T22:31:11.062Z,71.08
2022-12-04T22:34:00.174Z,71.06
2022-12-04T22:36:49.900Z,70.35
2022-12-04T22:39:37.019Z,70.86
2022-12-04T22:42:24.026Z,70.38
2022-12-04T22:45:12.979Z,70.19
2022-12-04T22:48:00.428Z,70.07
2022-12-04T22:50:47.204Z,69.81
2022-12-04T22:53:37.790Z,69.29
2022-12-04T22:56:25.949Z,69.55
2022-12-04T22:59:13.251Z,69.18
2022-12-04T23:02:01.769Z,69.13
2022-12-04T23:04:49.096Z,69.08
2022-12-04T23:07:36.860Z,69.45
2022-12-04T23:10:24.230Z,69.73
2022-12-04T23:13:11.142Z,69.75
2022-12-04T23:15:58.183Z,69.72
2022-12-04T23:18:46.377Z,69.54
2022-12-04T23:21:34.431Z,70.02
2022-12-04T23:24:21.548Z,70.14
2022-12-04T23:27:08.671Z,70.52
2022-12-04T23:29:55.553Z,70.49
2022-12-04T23:32:42.986Z,71.17
2022-12-04T23:35:31.924Z,71.12
2022-12-04T23:38:18.851Z,70.93
2022-12-04T23:41:07.704Z,70.44
2022-12-04T23:43:55.845Z,70.49
2022-12-04T23:46:42.696Z,70.56
2022-12-04T23:49:30.258Z,70.36
2022-12-04T23:52:18.237Z,70.78
2022-12-04T23:55:06.012Z,71.28
2022-12-04T23:57:52.796Z,70.95
